createdAt,value
2019-04-11T00:01:47.809Z,102132.02
2019-04-11T00:04:13.603Z,102128.11
2019-04-11T00:06:42.012Z,102137.27
2019-04-11T00:09:13.162Z,102131.16
2019-04-11T00:11:42.423Z,102135.11
2019-04-11T00:14:11.976Z,102136.41
2019-04-11T00:16:41.511Z,102139.48
2019-04-11T00:19:12.110Z,102132.93
2019-04-11T00:21:39.668Z,102137.73
2019-04-11T00:24:08.885Z,102148.69
2019-04-11T00:26:38.251Z,102144.73
2019-04-11T00:29:07.316Z,102149.91
2019-04-11T00:31:36.892Z,102149.91
2019-04-11T00:34:06.760Z,102150.38
2019-04-11T00:36:34.932Z,102149.47
2019-04-11T00:39:06.320Z,102148.14
2019-04-11T00:41:35.518Z,102155.13
2019-04-11T00:44:06.251Z,102149.45
2019-04-11T00:46:34.298Z,102154.70
2019-04-11T00:49:03.464Z,102150.30
2019-04-11T00:51:32.676Z,102150.30
2019-04-11T00:54:02.593Z,102158.20
2019-04-11T00:56:31.070Z,102152.95
2019-04-11T00:59:00.365Z,102154.70
2019-04-11T01:01:29.607Z,102151.20
2019-04-11T01:03:59.181Z,102150.76
2019-04-11T01:06:28.058Z,102156.00
2019-04-11T01:08:57.264Z,102152.53
2019-04-11T01:11:26.524Z,102155.16
2019-04-11T01:13:55.831Z,102157.38
2019-04-11T01:16:39.374Z,102155.16
2019-04-11T01:19:08.800Z,102153.84
2019-04-11T01:21:37.870Z,102157.77
2019-04-11T01:24:07.270Z,102156.91
2019-04-11T01:26:37.196Z,102156.00
2019-04-11T01:29:05.492Z,102156.91
2019-04-11T01:31:35.939Z,102160.84
2019-04-11T01:34:04.942Z,102160.87
2019-04-11T01:36:35.252Z,102155.18
2019-04-11T01:39:08.499Z,102155.18
2019-04-11T01:41:38.388Z,102158.27
2019-04-11T01:44:07.552Z,102160.01
2019-04-11T01:46:35.835Z,102169.63
2019-04-11T01:49:10.574Z,102164.82
2019-04-11T01:51:40.100Z,102167.00
2019-04-11T01:54:09.056Z,102168.31
2019-04-11T01:56:39.147Z,102168.78
2019-04-11T01:59:07.473Z,102170.52
2019-04-11T02:01:56.928Z,102175.36
2019-04-11T02:04:32.814Z,102172.32
2019-04-11T02:07:02.513Z,102178.87
2019-04-11T02:09:32.370Z,102174.50
2019-04-11T02:12:01.582Z,102177.54
2019-04-11T02:14:29.738Z,102177.56
2019-04-11T02:16:59.309Z,102182.80
2019-04-11T02:19:28.192Z,102181.94
2019-04-11T02:22:10.418Z,102181.94
2019-04-11T02:24:44.536Z,102180.65
2019-04-11T02:27:21.350Z,102181.52
2019-04-11T02:29:50.955Z,102187.23
2019-04-11T02:32:21.282Z,102190.73
2019-04-11T02:34:50.644Z,102185.90
2019-04-11T02:37:19.689Z,102192.87
2019-04-11T02:39:49.293Z,102192.87
2019-04-11T02:42:16.950Z,102194.58
2019-04-11T02:45:03.493Z,102192.77
2019-04-11T02:47:20.230Z,102192.77
2019-04-11T02:49:45.591Z,102201.98
2019-04-11T02:52:15.207Z,102199.39
2019-04-11T02:54:43.066Z,102199.80
2019-04-11T02:57:13.931Z,102203.77
2019-04-11T02:59:44.488Z,102201.03
2019-04-11T03:02:13.025Z,102201.03
2019-04-11T03:04:41.546Z,102213.66
2019-04-11T03:07:09.923Z,102194.77
2019-04-11T03:09:39.347Z,102202.64
2019-04-11T03:12:09.364Z,102207.91
2019-04-11T03:14:51.817Z,102217.95
2019-04-11T03:17:14.145Z,102212.69
2019-04-11T03:19:49.505Z,102219.24
2019-04-11T03:22:05.564Z,102214.00
2019-04-11T03:24:35.782Z,102216.65
2019-04-11T03:27:04.817Z,102217.49
2019-04-11T03:29:33.802Z,102219.70
2019-04-11T03:35:23.201Z,102221.42
2019-04-11T03:37:23.718Z,102224.52
2019-04-11T03:39:54.308Z,102227.11
2019-04-11T03:42:14.114Z,102228.89
2019-04-11T03:44:35.214Z,102234.07
2019-04-11T03:47:12.728Z,102234.51
2019-04-11T03:49:35.586Z,102234.52
2019-04-11T03:51:55.644Z,102230.55
2019-04-11T03:54:25.269Z,102230.55
2019-04-11T03:56:54.006Z,102234.48
2019-04-11T03:59:23.767Z,102238.00
2019-04-11T04:01:54.035Z,102238.00
2019-04-11T04:04:22.288Z,102240.19
2019-04-11T04:06:50.955Z,102238.42
2019-04-11T04:09:20.869Z,102238.42
2019-04-11T04:11:51.179Z,102252.46
2019-04-11T04:14:47.226Z,102249.40
2019-04-11T04:17:35.964Z,102253.33
2019-04-11T04:20:33.202Z,102264.29
2019-04-11T04:23:21.567Z,102263.38
2019-04-11T04:25:51.663Z,102267.75
2019-04-11T04:28:21.554Z,102273.84
2019-04-11T04:30:49.443Z,102281.30
2019-04-11T04:33:20.178Z,102269.91
2019-04-11T04:35:49.198Z,102277.34
2019-04-11T04:38:16.902Z,102281.69
2019-04-11T04:41:00.355Z,102285.98
2019-04-11T04:43:16.548Z,102289.45
2019-04-11T04:46:06.605Z,102295.54
2019-04-11T04:48:18.034Z,102299.47
2019-04-11T04:50:44.824Z,102299.00
2019-04-11T04:53:13.730Z,102307.30
2019-04-11T04:55:43.606Z,102300.75
2019-04-11T04:58:11.287Z,102307.74
2019-04-11T05:00:40.484Z,102311.67
2019-04-11T05:03:10.301Z,102317.79
2019-04-11T05:05:39.015Z,102317.83
2019-04-11T05:08:08.455Z,102316.11
2019-04-11T05:10:38.154Z,102324.91
2019-04-11T05:13:07.816Z,102324.07
2019-04-11T05:15:36.572Z,102322.39
2019-04-11T05:18:06.151Z,102317.17
2019-04-11T05:20:36.524Z,102322.05
2019-04-11T05:23:04.304Z,102322.98
2019-04-11T05:25:32.826Z,102327.41
2019-04-11T05:28:02.310Z,102326.13
2019-04-11T05:30:31.514Z,102337.55
2019-04-11T05:33:00.482Z,102331.89
2019-04-11T05:35:29.949Z,102329.30
2019-04-11T05:37:59.896Z,102334.71
2019-04-11T05:40:28.243Z,102338.56
2019-04-11T05:42:57.693Z,102338.56
2019-04-11T05:45:26.778Z,102342.22
2019-04-11T05:47:57.086Z,102342.08
2019-04-11T05:50:36.110Z,102342.16
2019-04-11T05:53:05.644Z,102342.16
2019-04-11T05:55:43.120Z,102345.64
2019-04-11T05:58:13.758Z,102345.64
2019-04-11T06:00:57.509Z,102349.14
2019-04-11T06:03:26.043Z,102346.90
2019-04-11T06:06:10.909Z,102350.76
2019-04-11T06:08:41.905Z,102353.80
2019-04-11T06:11:50.361Z,102353.80
2019-04-11T06:14:29.568Z,102353.80
2019-04-11T06:17:02.448Z,102360.88
2019-04-11T06:19:53.752Z,102360.88
2019-04-11T06:22:23.517Z,102364.01
2019-04-11T06:25:14.144Z,102358.77
2019-04-11T06:28:02.048Z,102370.66
2019-04-11T06:30:52.721Z,102375.53
2019-04-11T06:33:36.421Z,102379.15
2019-04-11T06:36:23.542Z,102364.67
2019-04-11T06:38:59.383Z,102388.90
2019-04-11T06:41:53.312Z,102382.33
2019-04-11T06:44:30.105Z,102382.33
2019-04-11T06:47:25.015Z,102383.24
2019-04-11T06:50:13.200Z,102394.23
2019-04-11T06:52:43.229Z,102385.49
2019-04-11T06:55:24.668Z,102392.50
2019-04-11T06:57:56.380Z,102388.02
2019-04-11T07:00:25.264Z,102388.84
2019-04-11T07:02:57.278Z,102385.23
2019-04-11T07:05:27.405Z,102389.58
2019-04-11T07:07:57.775Z,102394.44
2019-04-11T07:10:31.625Z,102398.05
2019-04-11T07:13:14.974Z,102394.95
2019-04-11T07:15:47.022Z,102397.13
2019-04-11T07:18:34.050Z,102392.30
2019-04-11T07:21:08.570Z,102398.53
2019-04-11T07:23:55.584Z,102403.80
2019-04-11T07:26:43.905Z,102396.84
2019-04-11T07:29:44.298Z,102406.08
2019-04-11T07:32:22.247Z,102405.61
2019-04-11T07:35:08.650Z,102405.61
2019-04-11T07:37:49.339Z,102410.40
2019-04-11T07:40:39.334Z,102413.91
2019-04-11T07:43:33.559Z,102420.45
2019-04-11T07:46:25.229Z,102423.02
2019-04-11T07:48:59.361Z,102428.91
2019-04-11T07:51:32.104Z,102428.91
2019-04-11T07:54:04.870Z,102426.00
2019-04-11T07:56:41.921Z,102430.95
2019-04-11T07:59:19.514Z,102428.39
2019-04-11T08:02:05.789Z,102429.97
2019-04-11T08:04:53.220Z,102434.69
2019-04-11T08:07:30.467Z,102438.41
2019-04-11T08:10:03.412Z,102433.33
2019-04-11T08:12:33.865Z,102438.33
2019-04-11T08:15:19.857Z,102442.81
2019-04-11T08:17:50.114Z,102441.62
2019-04-11T08:20:26.256Z,102445.90
2019-04-11T08:22:59.072Z,102450.09
2019-04-11T08:25:47.448Z,102453.02
2019-04-11T08:28:16.434Z,102451.95
2019-04-11T08:30:53.006Z,102453.89
2019-04-11T08:33:22.490Z,102456.24
2019-04-11T08:36:11.562Z,102461.11
2019-04-11T08:38:40.758Z,102466.80
2019-04-11T08:41:23.222Z,102466.25
2019-04-11T08:43:53.194Z,102464.00
2019-04-11T08:46:25.359Z,102477.48
2019-04-11T08:48:57.490Z,102471.06
2019-04-11T08:51:27.448Z,102474.88
2019-04-11T08:54:13.790Z,102468.17
2019-04-11T08:56:43.261Z,102468.62
2019-04-11T08:59:47.568Z,102477.14
2019-04-11T09:02:28.955Z,102475.03
2019-04-11T09:05:22.721Z,102468.30
2019-04-11T09:07:58.095Z,102470.79
2019-04-11T09:10:44.505Z,102467.61
2019-04-11T09:13:23.493Z,102465.25
2019-04-11T09:16:10.376Z,102464.42
2019-04-11T09:18:39.788Z,102460.92
2019-04-11T09:21:40.460Z,102459.12
2019-04-11T09:24:32.534Z,102455.50
2019-04-11T09:27:18.344Z,102450.11
2019-04-11T09:29:52.439Z,102456.72
2019-04-11T09:32:40.350Z,102449.66
2019-04-11T09:35:16.490Z,102461.92
2019-04-11T09:37:46.267Z,102452.20
2019-04-11T09:40:34.008Z,102448.78
2019-04-11T09:43:19.904Z,102443.15
2019-04-11T09:46:20.074Z,102441.52
2019-04-11T09:49:00.405Z,102443.11
2019-04-11T09:51:52.036Z,102436.22
2019-04-11T09:54:40.200Z,102435.61
2019-04-11T09:57:34.848Z,102436.27
2019-04-11T10:00:27.420Z,102432.70
2019-04-11T10:02:58.658Z,102425.58
2019-04-11T10:05:32.071Z,102432.80
2019-04-11T10:08:27.702Z,102436.27
2019-04-11T10:11:32.497Z,102446.69
2019-04-11T10:14:11.676Z,102443.34
2019-04-11T10:16:58.671Z,102440.79
2019-04-11T10:19:38.430Z,102455.61
2019-04-11T10:22:25.251Z,102454.01
2019-04-11T10:25:07.249Z,102453.80
2019-04-11T10:27:47.161Z,102457.25
2019-04-11T10:30:34.562Z,102455.66
2019-04-11T10:33:08.752Z,102458.50
2019-04-11T10:36:03.053Z,102454.67
2019-04-11T10:38:32.791Z,102460.44
2019-04-11T10:41:09.268Z,102451.28
2019-04-11T10:43:38.485Z,102460.21
2019-04-11T10:46:27.112Z,102459.45
2019-04-11T10:49:18.131Z,102455.14
2019-04-11T10:52:02.791Z,102457.44
2019-04-11T10:54:33.598Z,102461.80
2019-04-11T10:57:25.661Z,102463.48
2019-04-11T10:59:54.899Z,102468.62
2019-04-11T11:02:42.056Z,102469.41
2019-04-11T11:05:12.829Z,102459.16
2019-04-11T11:07:44.590Z,102463.41
2019-04-11T11:10:15.733Z,102460.66
2019-04-11T11:12:57.209Z,102457.48
2019-04-11T11:15:27.596Z,102457.55
2019-04-11T11:18:38.211Z,102462.25
2019-04-11T11:21:00.831Z,102461.88
2019-04-11T11:23:45.073Z,102464.97
2019-04-11T11:26:22.597Z,102461.83
2019-04-11T11:29:07.057Z,102460.11
2019-04-11T11:31:49.199Z,102451.51
2019-04-11T11:34:33.215Z,102459.86
2019-04-11T11:37:31.265Z,102466.09
2019-04-11T11:40:25.898Z,102457.46
2019-04-11T11:43:17.031Z,102465.48
2019-04-11T11:46:08.368Z,102470.72
2019-04-11T11:48:59.291Z,102468.19
2019-04-11T11:51:52.521Z,102464.78
2019-04-11T11:54:25.878Z,102470.59
2019-04-11T11:56:58.118Z,102472.02
2019-04-11T11:59:34.723Z,102480.99
2019-04-11T12:02:10.683Z,102475.90
2019-04-11T12:04:52.000Z,102472.93
2019-04-11T12:07:23.102Z,102477.82
2019-04-11T12:10:09.723Z,102472.47
2019-04-11T12:12:48.920Z,102468.86
2019-04-11T12:15:31.230Z,102471.00
2019-04-11T12:18:21.650Z,102463.05
2019-04-11T12:20:57.541Z,102468.67
2019-04-11T12:23:53.024Z,102462.33
2019-04-11T12:26:14.203Z,102464.02
2019-04-11T12:29:03.984Z,102464.17
2019-04-11T12:31:35.499Z,102468.84
2019-04-11T12:34:16.435Z,102465.74
2019-04-11T12:36:48.085Z,102467.95
2019-04-11T12:39:33.871Z,102469.99
2019-04-11T12:42:24.196Z,102471.14
2019-04-11T12:45:11.479Z,102462.89
2019-04-11T12:47:43.656Z,102460.23
2019-04-11T12:50:32.083Z,102464.88
2019-04-11T12:53:06.200Z,102467.17
2019-04-11T12:56:06.701Z,102461.86
2019-04-11T12:58:41.977Z,102463.09
2019-04-11T13:01:29.095Z,102462.64
2019-04-11T13:04:15.863Z,102462.28
2019-04-11T13:07:02.953Z,102463.05
2019-04-11T13:09:46.106Z,102462.08
2019-04-11T13:12:21.529Z,102460.50
2019-04-11T13:15:12.942Z,102462.58
2019-04-11T13:17:45.315Z,102464.31
2019-04-11T13:20:52.035Z,102455.45
2019-04-11T13:23:32.247Z,102460.85
2019-04-11T13:26:19.466Z,102463.05
2019-04-11T13:28:52.849Z,102461.55
2019-04-11T13:31:39.804Z,102455.86
2019-04-11T13:34:11.258Z,102456.86
2019-04-11T13:36:57.190Z,102462.75
2019-04-11T13:39:26.419Z,102457.91
2019-04-11T13:42:23.753Z,102458.08
2019-04-11T13:44:53.054Z,102457.28
2019-04-11T13:47:47.504Z,102456.72
2019-04-11T13:50:17.759Z,102452.89
2019-04-11T13:53:08.599Z,102460.18
2019-04-11T13:55:42.113Z,102462.89
2019-04-11T13:58:23.159Z,102446.65
2019-04-11T14:00:53.661Z,102456.33
2019-04-11T14:03:44.617Z,102450.11
2019-04-11T14:06:24.606Z,102446.08
2019-04-11T14:09:12.968Z,102452.09
2019-04-11T14:11:47.739Z,102450.28
2019-04-11T14:14:36.082Z,102451.08
2019-04-11T14:17:13.251Z,102453.62
2019-04-11T14:20:00.286Z,102445.61
2019-04-11T14:22:33.675Z,102450.45
2019-04-11T14:25:33.985Z,102453.63
2019-04-11T14:28:03.213Z,102452.26
2019-04-11T14:30:42.353Z,102456.61
2019-04-11T14:33:11.575Z,102448.70
2019-04-11T14:36:11.969Z,102450.55
2019-04-11T14:38:47.662Z,102449.27
2019-04-11T14:41:22.861Z,102444.98
2019-04-11T14:43:56.567Z,102452.22
2019-04-11T14:46:59.964Z,102457.63
2019-04-11T14:49:29.178Z,102448.00
2019-04-11T14:52:17.194Z,102449.38
2019-04-11T14:54:49.237Z,102449.02
2019-04-11T14:57:35.875Z,102452.60
2019-04-11T15:00:12.891Z,102448.26
2019-04-11T15:03:03.894Z,102444.73
2019-04-11T15:05:38.087Z,102439.95
2019-04-11T15:08:08.794Z,102444.81
2019-04-11T15:11:18.463Z,102452.78
2019-04-11T15:13:45.849Z,102446.68
2019-04-11T15:16:30.992Z,102447.16
2019-04-11T15:19:02.496Z,102444.14
2019-04-11T15:21:49.646Z,102444.58
2019-04-11T15:24:19.989Z,102450.33
2019-04-11T15:27:01.393Z,102448.59
2019-04-11T15:29:33.171Z,102445.53
2019-04-11T15:32:16.657Z,102454.30
2019-04-11T15:34:52.917Z,102445.95
2019-04-11T15:37:51.580Z,102441.99
2019-04-11T15:40:26.559Z,102443.30
2019-04-11T15:43:13.371Z,102443.70
2019-04-11T15:46:10.618Z,102445.91
2019-04-11T15:49:01.717Z,102442.80
2019-04-11T15:51:41.376Z,102446.31
2019-04-11T15:54:18.368Z,102447.20
2019-04-11T15:56:49.829Z,102452.52
2019-04-11T15:59:54.338Z,102444.19
2019-04-11T16:02:47.281Z,102453.01
2019-04-11T16:05:41.227Z,102460.50
2019-04-11T16:08:19.581Z,102449.09
2019-04-11T16:10:55.155Z,102458.34
2019-04-11T16:13:34.928Z,102458.80
2019-04-11T16:16:11.341Z,102462.34
2019-04-11T16:18:46.964Z,102461.47
2019-04-11T16:21:18.725Z,102465.41
2019-04-11T16:24:02.081Z,102471.57
2019-04-11T16:26:40.969Z,102466.73
2019-04-11T16:29:26.469Z,102468.53
2019-04-11T16:31:57.127Z,102464.55
2019-04-11T16:34:51.550Z,102462.36
2019-04-11T16:37:18.445Z,102466.34
2019-04-11T16:40:24.215Z,102468.95
2019-04-11T16:43:00.385Z,102478.64
2019-04-11T16:46:00.981Z,102470.30
2019-04-11T16:48:30.197Z,102478.19
2019-04-11T16:50:59.587Z,102470.28
2019-04-11T16:53:28.796Z,102474.23
2019-04-11T16:55:58.060Z,102469.42
2019-04-11T16:58:27.288Z,102475.55
2019-04-11T17:00:56.532Z,102471.60
2019-04-11T17:03:25.817Z,102468.06
2019-04-11T17:06:03.589Z,102468.06
2019-04-11T17:08:39.973Z,102476.41
2019-04-11T17:11:11.122Z,102478.60
2019-04-11T17:13:40.390Z,102487.84
2019-04-11T17:16:12.373Z,102486.48
2019-04-11T17:18:41.575Z,102486.48
2019-04-11T17:21:10.825Z,102487.81
2019-04-11T17:23:40.033Z,102493.53
2019-04-11T17:26:09.213Z,102493.52
2019-04-11T17:28:38.437Z,102485.13
2019-04-11T17:31:07.667Z,102485.13
2019-04-11T17:33:36.867Z,102488.20
2019-04-11T17:36:06.078Z,102488.20
2019-04-11T17:38:37.114Z,102509.27
2019-04-11T17:41:04.465Z,102492.53
2019-04-11T17:43:33.670Z,102504.41
2019-04-11T17:46:02.861Z,102501.77
2019-04-11T17:48:32.093Z,102509.65
2019-04-11T17:51:04.919Z,102509.65
2019-04-11T17:53:30.575Z,102513.58
2019-04-11T17:55:59.762Z,102520.13
2019-04-11T17:58:29.046Z,102521.45
2019-04-11T18:01:00.602Z,102420.67
2019-04-11T18:03:29.420Z,102525.36
2019-04-11T18:05:58.684Z,102521.84
2019-04-11T18:08:27.927Z,102523.14
2019-04-11T18:10:57.125Z,102525.31
2019-04-11T18:13:30.633Z,102532.73
2019-04-11T18:15:55.687Z,102534.49
2019-04-11T18:18:24.992Z,102527.91
2019-04-11T18:20:54.216Z,102539.76
2019-04-11T18:23:23.438Z,102537.98
2019-04-11T18:25:52.669Z,102530.48
2019-04-11T18:28:22.489Z,102542.80
2019-04-11T18:30:53.807Z,102548.05
2019-04-11T18:33:20.316Z,102545.83
2019-04-11T18:35:49.516Z,102553.29
2019-04-11T18:38:18.743Z,102551.08
2019-04-11T18:40:47.991Z,102548.45
2019-04-11T18:43:17.179Z,102548.45
2019-04-11T18:45:46.394Z,102549.74
2019-04-11T18:48:15.601Z,102554.55
2019-04-11T18:50:44.828Z,102554.55
2019-04-11T18:53:14.006Z,102562.83
2019-04-11T18:55:43.299Z,102561.95
2019-04-11T18:58:12.495Z,102561.95
2019-04-11T19:00:44.615Z,102567.62
2019-04-11T19:03:14.458Z,102567.62
2019-04-11T19:05:43.658Z,102574.17
2019-04-11T19:08:13.115Z,102559.20
2019-04-11T19:10:44.908Z,102569.73
2019-04-11T19:13:10.827Z,102568.38
2019-04-11T19:15:40.073Z,102568.38
2019-04-11T19:18:09.303Z,102569.20
2019-04-11T19:20:38.559Z,102571.39
2019-04-11T19:23:08.513Z,102580.16
2019-04-11T19:25:37.133Z,102580.16
2019-04-11T19:28:06.354Z,102584.98
2019-04-11T19:30:35.586Z,102567.45
2019-04-11T19:33:04.839Z,102566.11
2019-04-11T19:35:34.060Z,102566.11
2019-04-11T19:38:03.293Z,102572.30
2019-04-11T19:40:32.531Z,102572.76
2019-04-11T19:43:01.769Z,102565.73
2019-04-11T19:45:31.000Z,102571.88
2019-04-11T19:48:00.242Z,102573.59
2019-04-11T19:50:29.831Z,102582.30
2019-04-11T19:53:02.606Z,102580.53
2019-04-11T19:55:53.194Z,102578.34
2019-04-11T19:58:24.811Z,102589.23
2019-04-11T20:00:54.051Z,102589.23
2019-04-11T20:03:24.236Z,102592.75
2019-04-11T20:05:52.531Z,102587.44
2019-04-11T20:08:21.773Z,102587.44
2019-04-11T20:10:51.036Z,102595.35
2019-04-11T20:13:20.207Z,102597.52
2019-04-11T20:15:50.664Z,102591.36
2019-04-11T20:18:22.132Z,102594.86
2019-04-11T20:20:48.659Z,102598.22
2019-04-11T20:23:17.959Z,102599.71
2019-04-11T20:25:49.688Z,102595.83
2019-04-11T20:28:16.463Z,102590.58
2019-04-11T20:30:45.664Z,102592.05
2019-04-11T20:33:26.338Z,102591.50
2019-04-11T20:35:44.169Z,102596.27
2019-04-11T20:38:15.889Z,102592.68
2019-04-11T20:40:42.678Z,102612.73
2019-04-11T20:43:11.941Z,102595.11
2019-04-11T20:45:41.509Z,102588.80
2019-04-11T20:48:10.745Z,102588.80
2019-04-11T20:50:39.963Z,102597.95
2019-04-11T20:53:13.107Z,102596.50
2019-04-11T20:55:39.360Z,102596.50
2019-04-11T20:58:09.910Z,102615.75
2019-04-11T21:00:49.194Z,102606.00
2019-04-11T21:03:06.503Z,102606.00
2019-04-11T21:05:35.723Z,102608.59
2019-04-11T21:08:04.986Z,102605.50
2019-04-11T21:10:34.594Z,102604.59
2019-04-11T21:13:06.869Z,102604.59
2019-04-11T21:15:32.784Z,102602.75
2019-04-11T21:18:01.999Z,102602.75
2019-04-11T21:20:31.279Z,102603.19
2019-04-11T21:23:00.503Z,102589.08
2019-04-11T21:25:29.711Z,102595.65
2019-04-11T21:27:59.744Z,102597.43
2019-04-11T21:30:30.337Z,102601.34
2019-04-11T21:32:57.506Z,102607.88
2019-04-11T21:35:26.700Z,102608.68
2019-04-11T21:37:57.898Z,102609.55
2019-04-11T21:40:25.158Z,102605.62
2019-04-11T21:42:54.392Z,102608.21
2019-04-11T21:45:23.672Z,102606.89
2019-04-11T21:47:53.007Z,102612.99
2019-04-11T21:50:22.199Z,102610.36
2019-04-11T21:52:51.416Z,102611.24
2019-04-11T21:55:20.677Z,102611.20
2019-04-11T21:57:49.900Z,102615.98
2019-04-11T22:00:24.656Z,102608.91
2019-04-11T22:02:54.385Z,102614.64
2019-04-11T22:05:23.084Z,102621.17
2019-04-11T22:07:52.286Z,102620.73
2019-04-11T22:10:21.536Z,102619.02
2019-04-11T22:12:50.730Z,102611.54
2019-04-11T22:15:19.968Z,102615.44
2019-04-11T22:17:49.216Z,102612.85
2019-04-11T22:20:18.543Z,102609.31
2019-04-11T22:22:47.746Z,102615.84
2019-04-11T22:25:16.952Z,102614.53
2019-04-11T22:27:46.194Z,102618.03
2019-04-11T22:30:15.432Z,102617.56
2019-04-11T22:32:44.629Z,102614.02
2019-04-11T22:35:13.892Z,102608.26
2019-04-11T22:37:43.118Z,102622.70
2019-04-11T22:40:12.511Z,102618.36
2019-04-11T22:42:41.752Z,102618.36
2019-04-11T22:45:11.008Z,102617.45
2019-04-11T22:47:40.289Z,102625.33
2019-04-11T22:50:10.647Z,102619.63
2019-04-11T22:52:39.875Z,102618.75
2019-04-11T22:55:10.976Z,102620.03
2019-04-11T22:57:37.490Z,102616.94
2019-04-11T23:00:06.926Z,102613.83
2019-04-11T23:02:47.402Z,102623.45
2019-04-11T23:05:17.424Z,102625.16
2019-04-11T23:07:45.905Z,102619.48
2019-04-11T23:10:17.098Z,102621.67
2019-04-11T23:12:45.749Z,102619.95
2019-04-11T23:15:15.081Z,102623.41
2019-04-11T23:17:44.098Z,102615.06
2019-04-11T23:20:11.924Z,102619.87
2019-04-11T23:22:42.771Z,102619.36
2019-04-11T23:25:10.150Z,102621.98
2019-04-11T23:27:39.364Z,102616.70
2019-04-11T23:30:08.620Z,102613.64
2019-04-11T23:32:37.884Z,102614.91
2019-04-11T23:35:07.080Z,102613.16
2019-04-11T23:37:51.107Z,102613.16
2019-04-11T23:40:21.002Z,102615.34
2019-04-11T23:42:50.137Z,102615.75
2019-04-11T23:45:18.838Z,102613.55
2019-04-11T23:47:47.698Z,102616.61
2019-04-11T23:50:16.902Z,102611.77
2019-04-11T23:52:46.162Z,102611.33
2019-04-11T23:55:15.430Z,102618.32
2019-04-11T23:57:44.666Z,102617.84
